sensor_id;sensor_type;location;lat;lon;timestamp;pressure;altitude;pressure_sealevel;temperature;humidity
7990;BME280;4040;42.848;23.034;2023-12-20T00:01:28;95271.22;;;-2.35;100.00
7990;BME280;4040;42.848;23.034;2023-12-20T00:03:56;95255.09;;;-2.42;100.00
7990;BME280;4040;42.848;23.034;2023-12-20T00:06:23;95257.28;;;-2.44;100.00
7990;BME280;4040;42.848;23.034;2023-12-20T00:08:51;95253.38;;;-2.47;100.00
7990;BME280;4040;42.848;23.034;2023-12-20T00:11:19;95244.38;;;-2.54;100.00
7990;BME280;4040;42.848;23.034;2023-12-20T00:13:48;95248.06;;;-2.63;100.00
7990;BME280;4040;42.848;23.034;2023-12-20T00:16:15;95234.44;;;-2.65;100.00
7990;BME280;4040;42.848;23.034;2023-12-20T00:18:43;95242.84;;;-2.55;100.00
7990;BME280;4040;42.848;23.034;2023-12-20T00:21:10;95198.13;;;-2.77;100.00
7990;BME280;4040;42.848;23.034;2023-12-20T00:23:38;95225.91;;;-2.37;100.00
7990;BME280;4040;42.848;23.034;2023-12-20T00:26:05;95219.25;;;-2.43;100.00
7990;BME280;4040;42.848;23.034;2023-12-20T00:28:33;95204.81;;;-2.46;100.00
7990;BME280;4040;42.848;23.034;2023-12-20T00:31:02;95213.81;;;-2.47;100.00
7990;BME280;4040;42.848;23.034;2023-12-20T00:33:30;95210.25;;;-2.59;100.00
7990;BME280;4040;42.848;23.034;2023-12-20T00:35:57;95210.56;;;-2.44;100.00
7990;BME280;4040;42.848;23.034;2023-12-20T00:38:25;95207.63;;;-2.42;100.00
7990;BME280;4040;42.848;23.034;2023-12-20T00:40:52;95216.00;;;-2.40;100.00
7990;BME280;4040;42.848;23.034;2023-12-20T00:43:20;95206.06;;;-2.35;100.00
7990;BME280;4040;42.848;23.034;2023-12-20T00:45:47;95205.16;;;-2.39;100.00
7990;BME280;4040;42.848;23.034;2023-12-20T00:48:16;95192.72;;;-2.38;100.00
7990;BME280;4040;42.848;23.034;2023-12-20T00:50:44;95195.53;;;-2.43;100.00
7990;BME280;4040;42.848;23.034;2023-12-20T00:53:11;95185.13;;;-2.48;100.00
7990;BME280;4040;42.848;23.034;2023-12-20T00:55:39;95196.75;;;-2.49;100.00
7990;BME280;4040;42.848;23.034;2023-12-20T00:58:06;95192.09;;;-2.52;100.00
7990;BME280;4040;42.848;23.034;2023-12-20T01:00:34;95192.09;;;-2.52;100.00
7990;BME280;4040;42.848;23.034;2023-12-20T01:03:01;95188.06;;;-2.58;100.00
7990;BME280;4040;42.848;23.034;2023-12-20T01:05:30;95186.22;;;-2.57;100.00
7990;BME280;4040;42.848;23.034;2023-12-20T01:07:57;95186.50;;;-2.59;100.00
7990;BME280;4040;42.848;23.034;2023-12-20T01:10:25;95176.44;;;-2.65;100.00
7990;BME280;4040;42.848;23.034;2023-12-20T01:12:54;95183.56;;;-2.66;100.00
7990;BME280;4040;42.848;23.034;2023-12-20T01:15:22;95172.53;;;-2.68;100.00
7990;BME280;4040;42.848;23.034;2023-12-20T01:17:49;95171.31;;;-2.62;100.00
7990;BME280;4040;42.848;23.034;2023-12-20T01:20:16;95157.69;;;-2.64;100.00
7990;BME280;4040;42.848;23.034;2023-12-20T01:22:47;95166.38;;;-2.55;100.00
7990;BME280;4040;42.848;23.034;2023-12-20T01:25:14;95151.28;;;-2.71;100.00
7990;BME280;4040;42.848;23.034;2023-12-20T01:27:42;95163.25;;;-2.74;100.00
7990;BME280;4040;42.848;23.034;2023-12-20T01:30:10;95163.72;;;-2.72;100.00
7990;BME280;4040;42.848;23.034;2023-12-20T01:32:37;95155.81;;;-2.72;100.00
7990;BME280;4040;42.848;23.034;2023-12-20T01:35:05;95148.50;;;-2.92;100.00
7990;BME280;4040;42.848;23.034;2023-12-20T01:37:33;95156.69;;;-2.93;100.00
7990;BME280;4040;42.848;23.034;2023-12-20T01:40:02;95155.31;;;-2.91;100.00
7990;BME280;4040;42.848;23.034;2023-12-20T01:42:30;95151.63;;;-2.81;100.00
7990;BME280;4040;42.848;23.034;2023-12-20T01:44:57;95141.09;;;-2.73;100.00
7990;BME280;4040;42.848;23.034;2023-12-20T01:47:25;95139.06;;;-2.76;100.00
7990;BME280;4040;42.848;23.034;2023-12-20T01:49:53;95122.78;;;-2.78;100.00
7990;BME280;4040;42.848;23.034;2023-12-20T01:52:23;95133.19;;;-2.73;100.00
7990;BME280;4040;42.848;23.034;2023-12-20T01:54:52;95117.66;;;-2.83;100.00
7990;BME280;4040;42.848;23.034;2023-12-20T01:57:22;95131.59;;;-2.91;100.00
7990;BME280;4040;42.848;23.034;2023-12-20T01:59:50;95125.72;;;-3.05;100.00
7990;BME280;4040;42.848;23.034;2023-12-20T02:02:17;95130.03;;;-3.09;100.00
7990;BME280;4040;42.848;23.034;2023-12-20T02:04:45;95128.81;;;-3.03;100.00
7990;BME280;4040;42.848;23.034;2023-12-20T02:07:13;95124.00;;;-3.09;100.00
7990;BME280;4040;42.848;23.034;2023-12-20T02:09:40;95116.97;;;-3.31;100.00
7990;BME280;4040;42.848;23.034;2023-12-20T02:12:08;95112.47;;;-3.39;100.00
7990;BME280;4040;42.848;23.034;2023-12-20T02:14:38;95106.28;;;-3.34;100.00
7990;BME280;4040;42.848;23.034;2023-12-20T02:17:05;95110.16;;;-3.32;100.00
7990;BME280;4040;42.848;23.034;2023-12-20T02:19:33;95092.53;;;-3.23;100.00
7990;BME280;4040;42.848;23.034;2023-12-20T02:22:09;95102.41;;;-3.37;100.00
7990;BME280;4040;42.848;23.034;2023-12-20T02:24:37;95102.72;;;-3.30;100.00
7990;BME280;4040;42.848;23.034;2023-12-20T02:27:06;95096.88;;;-3.27;100.00
7990;BME280;4040;42.848;23.034;2023-12-20T02:29:34;95087.53;;;-3.33;100.00
7990;BME280;4040;42.848;23.034;2023-12-20T02:32:02;95083.81;;;-3.32;100.00
7990;BME280;4040;42.848;23.034;2023-12-20T02:34:30;95089.88;;;-3.31;100.00
7990;BME280;4040;42.848;23.034;2023-12-20T02:36:58;95082.59;;;-3.26;100.00
7990;BME280;4040;42.848;23.034;2023-12-20T02:39:26;95081.81;;;-3.26;100.00
7990;BME280;4040;42.848;23.034;2023-12-20T02:41:54;95078.88;;;-3.25;100.00
7990;BME280;4040;42.848;23.034;2023-12-20T02:44:22;95078.88;;;-3.25;100.00
7990;BME280;4040;42.848;23.034;2023-12-20T02:46:49;95077.81;;;-3.32;100.00
7990;BME280;4040;42.848;23.034;2023-12-20T02:49:17;95068.03;;;-3.32;100.00
7990;BME280;4040;42.848;23.034;2023-12-20T02:51:44;95069.75;;;-3.27;100.00
7990;BME280;4040;42.848;23.034;2023-12-20T02:54:12;95070.81;;;-3.37;100.00
7990;BME280;4040;42.848;23.034;2023-12-20T02:56:41;95070.81;;;-3.28;100.00
7990;BME280;4040;42.848;23.034;2023-12-20T02:59:09;95079.19;;;-3.35;100.00
7990;BME280;4040;42.848;23.034;2023-12-20T03:01:41;95064.59;;;-3.41;100.00
7990;BME280;4040;42.848;23.034;2023-12-20T03:04:10;95069.88;;;-3.41;100.00
7990;BME280;4040;42.848;23.034;2023-12-20T03:06:37;95072.31;;;-3.53;100.00
7990;BME280;4040;42.848;23.034;2023-12-20T03:09:05;95071.88;;;-3.46;100.00
7990;BME280;4040;42.848;23.034;2023-12-20T03:11:33;95076.66;;;-3.57;100.00
7990;BME280;4040;42.848;23.034;2023-12-20T03:14:02;95076.03;;;-3.54;100.00
7990;BME280;4040;42.848;23.034;2023-12-20T03:16:29;95076.66;;;-3.57;100.00
7990;BME280;4040;42.848;23.034;2023-12-20T03:18:58;95079.69;;;-3.72;100.00
7990;BME280;4040;42.848;23.034;2023-12-20T03:21:26;95035.50;;;-4.00;100.00
7990;BME280;4040;42.848;23.034;2023-12-20T03:23:53;95072.09;;;-3.82;100.00
7990;BME280;4040;42.848;23.034;2023-12-20T03:26:21;95070.41;;;-3.78;100.00
7990;BME280;4040;42.848;23.034;2023-12-20T03:28:49;95071.97;;;-3.77;100.00
7990;BME280;4040;42.848;23.034;2023-12-20T03:31:18;95069.13;;;-3.89;100.00
7990;BME280;4040;42.848;23.034;2023-12-20T03:33:46;95044.91;;;-4.08;100.00
7990;BME280;4040;42.848;23.034;2023-12-20T03:36:14;95069.94;;;-3.80;100.00
7990;BME280;4040;42.848;23.034;2023-12-20T03:38:41;95055.81;;;-3.84;100.00
7990;BME280;4040;42.848;23.034;2023-12-20T03:41:09;95061.72;;;-3.87;100.00
7990;BME280;4040;42.848;23.034;2023-12-20T03:43:37;95050.56;;;-3.84;100.00
7990;BME280;4040;42.848;23.034;2023-12-20T03:46:04;95036.94;;;-3.86;100.00
7990;BME280;4040;42.848;23.034;2023-12-20T03:48:33;95055.88;;;-3.67;100.00
7990;BME280;4040;42.848;23.034;2023-12-20T03:51:01;95048.47;;;-3.65;100.00
7990;BME280;4040;42.848;23.034;2023-12-20T03:53:28;95041.19;;;-3.59;100.00
7990;BME280;4040;42.848;23.034;2023-12-20T03:55:56;95042.00;;;-3.42;100.00
7990;BME280;4040;42.848;23.034;2023-12-20T03:58:23;95008.38;;;-3.53;100.00
7990;BME280;4040;42.848;23.034;2023-12-20T04:00:51;95041.41;;;-3.22;100.00
7990;BME280;4040;42.848;23.034;2023-12-20T04:03:18;95047.63;;;-3.18;100.00
7990;BME280;4040;42.848;23.034;2023-12-20T04:05:47;95045.56;;;-3.21;100.00
7990;BME280;4040;42.848;23.034;2023-12-20T04:08:15;95017.66;;;-3.47;100.00
7990;BME280;4040;42.848;23.034;2023-12-20T04:10:43;95039.22;;;-3.20;100.00
7990;BME280;4040;42.848;23.034;2023-12-20T04:13:10;95033.66;;;-3.10;100.00
7990;BME280;4040;42.848;23.034;2023-12-20T04:15:38;94964.53;;;-3.66;100.00
7990;BME280;4040;42.848;23.034;2023-12-20T04:18:05;94949.09;;;-3.68;100.00
7990;BME280;4040;42.848;23.034;2023-12-20T04:20:33;95039.88;;;-3.06;100.00
7990;BME280;4040;42.848;23.034;2023-12-20T04:23:02;95031.16;;;-2.98;100.00
7990;BME280;4040;42.848;23.034;2023-12-20T04:25:30;95010.41;;;-3.25;100.00
7990;BME280;4040;42.848;23.034;2023-12-20T04:27:57;95032.41;;;-3.21;100.00
7990;BME280;4040;42.848;23.034;2023-12-20T04:30:25;95036.44;;;-3.15;100.00
7990;BME280;4040;42.848;23.034;2023-12-20T04:32:52;95037.53;;;-3.16;100.00
7990;BME280;4040;42.848;23.034;2023-12-20T04:35:20;95000.66;;;-3.41;100.00
7990;BME280;4040;42.848;23.034;2023-12-20T04:37:47;95031.50;;;-3.25;100.00
7990;BME280;4040;42.848;23.034;2023-12-20T04:40:17;95028.53;;;-3.06;100.00
7990;BME280;4040;42.848;23.034;2023-12-20T04:42:44;95024.34;;;-2.99;100.00
7990;BME280;4040;42.848;23.034;2023-12-20T04:45:12;94962.88;;;-3.37;100.00
7990;BME280;4040;42.848;23.034;2023-12-20T04:47:42;95020.78;;;-3.20;100.00
7990;BME280;4040;42.848;23.034;2023-12-20T04:50:09;95013.69;;;-3.19;100.00
7990;BME280;4040;42.848;23.034;2023-12-20T04:52:39;95000.03;;;-3.04;100.00
7990;BME280;4040;42.848;23.034;2023-12-20T04:55:07;95005.59;;;-2.97;100.00
7990;BME280;4040;42.848;23.034;2023-12-20T04:57:36;95025.91;;;-2.98;100.00
7990;BME280;4040;42.848;23.034;2023-12-20T05:00:05;95006.06;;;-3.04;100.00
7990;BME280;4040;42.848;23.034;2023-12-20T05:02:34;95001.13;;;-2.97;100.00
7990;BME280;4040;42.848;23.034;2023-12-20T05:05:02;94937.75;;;-3.34;100.00
7990;BME280;4040;42.848;23.034;2023-12-20T05:07:29;94990.28;;;-3.04;100.00
7990;BME280;4040;42.848;23.034;2023-12-20T05:09:57;94984.84;;;-2.99;100.00
7990;BME280;4040;42.848;23.034;2023-12-20T05:12:24;94983.28;;;-2.91;100.00
7990;BME280;4040;42.848;23.034;2023-12-20T05:14:53;94969.16;;;-2.87;100.00
7990;BME280;4040;42.848;23.034;2023-12-20T05:17:21;94966.06;;;-2.89;100.00
7990;BME280;4040;42.848;23.034;2023-12-20T05:19:48;94967.00;;;-2.85;100.00
7990;BME280;4040;42.848;23.034;2023-12-20T05:22:16;94963.44;;;-2.97;100.00
7990;BME280;4040;42.848;23.034;2023-12-20T05:24:43;94968.13;;;-3.03;100.00
7990;BME280;4040;42.848;23.034;2023-12-20T05:27:10;94958.34;;;-2.94;100.00
7990;BME280;4040;42.848;23.034;2023-12-20T05:29:38;94810.09;;;-4.00;100.00
7990;BME280;4040;42.848;23.034;2023-12-20T05:32:07;94951.41;;;-3.07;100.00
7990;BME280;4040;42.848;23.034;2023-12-20T05:34:35;94943.94;;;-3.13;100.00
7990;BME280;4040;42.848;23.034;2023-12-20T05:37:03;94936.38;;;-3.32;100.00
7990;BME280;4040;42.848;23.034;2023-12-20T05:39:31;94945.03;;;-3.23;100.00
7990;BME280;4040;42.848;23.034;2023-12-20T05:41:58;94912.38;;;-3.47;100.00
7990;BME280;4040;42.848;23.034;2023-12-20T05:44:26;94923.06;;;-3.27;100.00
7990;BME280;4040;42.848;23.034;2023-12-20T05:46:53;94888.22;;;-3.66;100.00
7990;BME280;4040;42.848;23.034;2023-12-20T05:49:22;94936.69;;;-3.25;100.00
7990;BME280;4040;42.848;23.034;2023-12-20T05:51:50;94938.53;;;-3.34;100.00
7990;BME280;4040;42.848;23.034;2023-12-20T05:54:18;94926.59;;;-3.23;100.00
7990;BME280;4040;42.848;23.034;2023-12-20T05:56:45;94928.78;;;-3.16;100.00
7990;BME280;4040;42.848;23.034;2023-12-20T05:59:13;94943.81;;;-3.17;100.00
7990;BME280;4040;42.848;23.034;2023-12-20T06:01:40;94933.28;;;-3.17;100.00
7990;BME280;4040;42.848;23.034;2023-12-20T06:04:08;94941.63;;;-3.15;100.00
7990;BME280;4040;42.848;23.034;2023-12-20T06:06:42;94927.38;;;-3.14;100.00
7990;BME280;4040;42.848;23.034;2023-12-20T06:09:10;94898.59;;;-3.36;100.00
7990;BME280;4040;42.848;23.034;2023-12-20T06:11:37;94922.25;;;-3.19;100.00
7990;BME280;4040;42.848;23.034;2023-12-20T06:14:05;94924.75;;;-3.14;100.00
7990;BME280;4040;42.848;23.034;2023-12-20T06:16:32;94916.06;;;-3.14;100.00
7990;BME280;4040;42.848;23.034;2023-12-20T06:19:00;94912.03;;;-3.12;100.00
7990;BME280;4040;42.848;23.034;2023-12-20T06:21:27;94908.75;;;-3.09;100.00
7990;BME280;4040;42.848;23.034;2023-12-20T06:23:58;94882.00;;;-3.19;100.00
7990;BME280;4040;42.848;23.034;2023-12-20T06:26:26;94868.09;;;-3.37;100.00
7990;BME280;4040;42.848;23.034;2023-12-20T06:28:53;94926.25;;;-3.04;100.00
7990;BME280;4040;42.848;23.034;2023-12-20T06:31:21;94925.34;;;-3.08;100.00
7990;BME280;4040;42.848;23.034;2023-12-20T06:33:48;94921.31;;;-2.97;100.00
7990;BME280;4040;42.848;23.034;2023-12-20T06:36:23;94923.31;;;-2.94;100.00
7990;BME280;4040;42.848;23.034;2023-12-20T06:38:51;94885.88;;;-3.17;100.00
7990;BME280;4040;42.848;23.034;2023-12-20T06:41:20;94923.00;;;-2.93;100.00
7990;BME280;4040;42.848;23.034;2023-12-20T06:43:50;94908.75;;;-3.09;100.00
7990;BME280;4040;42.848;23.034;2023-12-20T06:46:17;94918.34;;;-2.87;100.00
7990;BME280;4040;42.848;23.034;2023-12-20T10:46:15;94564.59;;;15.61;62.82
7990;BME280;4040;42.848;23.034;2023-12-20T10:48:45;94611.50;;;16.51;53.87
7990;BME280;4040;42.848;23.034;2023-12-20T10:51:17;94606.38;;;18.74;49.54
7990;BME280;4040;42.848;23.034;2023-12-20T10:53:47;94593.06;;;19.50;45.88
7990;BME280;4040;42.848;23.034;2023-12-20T10:56:16;94582.06;;;20.15;42.86
7990;BME280;4040;42.848;23.034;2023-12-20T10:58:45;94574.13;;;20.17;40.75
7990;BME280;4040;42.848;23.034;2023-12-20T11:01:15;94571.59;;;20.28;40.76
7990;BME280;4040;42.848;23.034;2023-12-20T11:03:49;94576.63;;;19.59;40.75
7990;BME280;4040;42.848;23.034;2023-12-20T11:06:27;94547.63;;;18.46;42.09
7990;BME280;4040;42.848;23.034;2023-12-20T11:09:04;94341.75;;;16.38;43.81
7990;BME280;4040;42.848;23.034;2023-12-20T11:11:46;94566.75;;;17.04;45.18
7990;BME280;4040;42.848;23.034;2023-12-20T11:14:22;94553.88;;;16.96;45.73
7990;BME280;4040;42.848;23.034;2023-12-20T11:17:05;94507.16;;;16.27;46.79
7990;BME280;4040;42.848;23.034;2023-12-20T11:19:36;94468.25;;;16.09;46.80
7990;BME280;4040;42.848;23.034;2023-12-20T11:22:04;94462.13;;;15.74;48.12
7990;BME280;4040;42.848;23.034;2023-12-20T11:24:32;94530.47;;;15.02;50.21
7990;BME280;4040;42.848;23.034;2023-12-20T11:27:00;94531.41;;;13.63;53.34
7990;BME280;4040;42.848;23.034;2023-12-20T11:29:34;94526.63;;;13.39;56.44
7990;BME280;4040;42.848;23.034;2023-12-20T11:32:27;94530.53;;;13.38;56.91
7990;BME280;4040;42.848;23.034;2023-12-20T11:34:55;94525.66;;;13.33;57.22
7990;BME280;4040;42.848;23.034;2023-12-20T11:37:29;94448.09;;;12.98;57.89
7990;BME280;4040;42.848;23.034;2023-12-20T11:40:01;94508.22;;;13.34;58.45
7990;BME280;4040;42.848;23.034;2023-12-20T11:42:33;94511.97;;;13.68;58.08
7990;BME280;4040;42.848;23.034;2023-12-20T11:45:02;94501.09;;;13.40;58.59
7990;BME280;4040;42.848;23.034;2023-12-20T11:47:32;94494.88;;;13.43;58.49
7990;BME280;4040;42.848;23.034;2023-12-20T11:49:59;94488.13;;;12.71;60.99
7990;BME280;4040;42.848;23.034;2023-12-20T11:52:29;94487.88;;;12.14;63.92
7990;BME280;4040;42.848;23.034;2023-12-20T11:54:57;94486.28;;;11.62;66.43
7990;BME280;4040;42.848;23.034;2023-12-20T11:57:25;94471.06;;;12.07;66.36
7990;BME280;4040;42.848;23.034;2023-12-20T11:59:52;94471.06;;;12.74;62.88
7990;BME280;4040;42.848;23.034;2023-12-20T12:02:20;94450.81;;;12.50;63.53
7990;BME280;4040;42.848;23.034;2023-12-20T12:04:50;94454.78;;;11.94;64.68
7990;BME280;4040;42.848;23.034;2023-12-20T12:07:17;94449.03;;;11.53;67.47
7990;BME280;4040;42.848;23.034;2023-12-20T12:09:46;94449.00;;;11.14;69.25
7990;BME280;4040;42.848;23.034;2023-12-20T12:12:13;94464.88;;;9.54;77.95
7990;BME280;4040;42.848;23.034;2023-12-20T12:14:41;94455.41;;;7.52;100.00
7990;BME280;4040;42.848;23.034;2023-12-20T12:17:12;94453.41;;;6.32;100.00
7990;BME280;4040;42.848;23.034;2023-12-20T12:19:40;94427.28;;;5.52;100.00
7990;BME280;4040;42.848;23.034;2023-12-20T12:22:10;94452.16;;;4.75;100.00
7990;BME280;4040;42.848;23.034;2023-12-20T12:24:39;94438.59;;;3.96;100.00
7990;BME280;4040;42.848;23.034;2023-12-20T12:27:07;94462.22;;;3.98;100.00
7990;BME280;4040;42.848;23.034;2023-12-20T12:29:35;94393.19;;;3.39;100.00
7990;BME280;4040;42.848;23.034;2023-12-20T12:32:05;94429.34;;;3.40;100.00
7990;BME280;4040;42.848;23.034;2023-12-20T12:34:33;94445.38;;;3.14;100.00
7990;BME280;4040;42.848;23.034;2023-12-20T12:37:01;94450.91;;;2.69;100.00
7990;BME280;4040;42.848;23.034;2023-12-20T12:39:30;94450.38;;;2.34;100.00
7990;BME280;4040;42.848;23.034;2023-12-20T12:41:58;94451.00;;;2.24;100.00
7990;BME280;4040;42.848;23.034;2023-12-20T12:44:25;94443.81;;;2.25;100.00
7990;BME280;4040;42.848;23.034;2023-12-20T12:46:53;94445.28;;;2.22;100.00
7990;BME280;4040;42.848;23.034;2023-12-20T12:49:22;94445.00;;;2.27;100.00
7990;BME280;4040;42.848;23.034;2023-12-20T12:51:50;94445.53;;;2.14;100.00
7990;BME280;4040;42.848;23.034;2023-12-20T12:54:18;94435.06;;;2.24;100.00
7990;BME280;4040;42.848;23.034;2023-12-20T12:56:47;94441.41;;;2.42;100.00
7990;BME280;4040;42.848;23.034;2023-12-20T12:59:15;94422.38;;;2.66;100.00
7990;BME280;4040;42.848;23.034;2023-12-20T13:01:43;94429.06;;;2.82;100.00
7990;BME280;4040;42.848;23.034;2023-12-20T13:04:10;94428.59;;;2.77;100.00
7990;BME280;4040;42.848;23.034;2023-12-20T13:06:38;94429.97;;;2.67;100.00
7990;BME280;4040;42.848;23.034;2023-12-20T13:09:06;94430.81;;;2.45;100.00
7990;BME280;4040;42.848;23.034;2023-12-20T13:11:35;94431.31;;;2.25;100.00
7990;BME280;4040;42.848;23.034;2023-12-20T13:14:04;94438.75;;;2.16;100.00
7990;BME280;4040;42.848;23.034;2023-12-20T13:16:33;94411.41;;;2.16;100.00
7990;BME280;4040;42.848;23.034;2023-12-20T13:19:01;94419.94;;;2.28;100.00
7990;BME280;4040;42.848;23.034;2023-12-20T13:21:28;94428.22;;;2.23;100.00
7990;BME280;4040;42.848;23.034;2023-12-20T13:23:56;94425.75;;;2.11;100.00
7990;BME280;4040;42.848;23.034;2023-12-20T13:26:24;94422.59;;;2.02;100.00
7990;BME280;4040;42.848;23.034;2023-12-20T13:28:53;94420.63;;;1.73;100.00
7990;BME280;4040;42.848;23.034;2023-12-20T13:31:22;94421.91;;;1.60;100.00
7990;BME280;4040;42.848;23.034;2023-12-20T13:33:49;94406.91;;;1.71;100.00
7990;BME280;4040;42.848;23.034;2023-12-20T13:36:18;94404.78;;;1.80;100.00
7990;BME280;4040;42.848;23.034;2023-12-20T13:38:45;94404.69;;;1.73;100.00
7990;BME280;4040;42.848;23.034;2023-12-20T13:41:13;94407.09;;;1.59;100.00
7990;BME280;4040;42.848;23.034;2023-12-20T13:43:40;94408.00;;;1.44;100.00
7990;BME280;4040;42.848;23.034;2023-12-20T13:46:08;94394.47;;;1.30;100.00
7990;BME280;4040;42.848;23.034;2023-12-20T13:48:37;94404.78;;;1.35;100.00
7990;BME280;4040;42.848;23.034;2023-12-20T13:51:05;94393.41;;;1.35;100.00
7990;BME280;4040;42.848;23.034;2023-12-20T13:53:33;94400.44;;;1.46;100.00
7990;BME280;4040;42.848;23.034;2023-12-20T13:56:02;94357.63;;;1.25;100.00
7990;BME280;4040;42.848;23.034;2023-12-20T13:58:30;94392.06;;;1.44;100.00
7990;BME280;4040;42.848;23.034;2023-12-20T14:00:57;94392.06;;;1.44;100.00
7990;BME280;4040;42.848;23.034;2023-12-20T14:03:25;94390.94;;;1.45;100.00
7990;BME280;4040;42.848;23.034;2023-12-20T14:05:54;94391.09;;;1.56;100.00
7990;BME280;4040;42.848;23.034;2023-12-20T14:08:22;94392.31;;;1.58;100.00
7990;BME280;4040;42.848;23.034;2023-12-20T14:10:50;94375.44;;;1.47;100.00
7990;BME280;4040;42.848;23.034;2023-12-20T14:13:18;94383.13;;;1.52;100.00
7990;BME280;4040;42.848;23.034;2023-12-20T14:15:47;94383.63;;;1.61;100.00
7990;BME280;4040;42.848;23.034;2023-12-20T14:18:15;94383.50;;;1.77;100.00
7990;BME280;4040;42.848;23.034;2023-12-20T14:20:43;94376.00;;;1.82;100.00
7990;BME280;4040;42.848;23.034;2023-12-20T14:23:15;94379.28;;;1.72;100.00
7990;BME280;4040;42.848;23.034;2023-12-20T14:25:42;94376.66;;;1.76;100.00
7990;BME280;4040;42.848;23.034;2023-12-20T14:28:10;94373.00;;;1.84;100.00
7990;BME280;4040;42.848;23.034;2023-12-20T14:30:39;94379.78;;;1.81;100.00
7990;BME280;4040;42.848;23.034;2023-12-20T14:33:07;94366.81;;;1.76;100.00
7990;BME280;4040;42.848;23.034;2023-12-20T14:35:35;94366.97;;;1.87;100.00
7990;BME280;4040;42.848;23.034;2023-12-20T14:38:02;94368.47;;;1.84;100.00
7990;BME280;4040;42.848;23.034;2023-12-20T14:40:31;94377.97;;;1.85;100.00
7990;BME280;4040;42.848;23.034;2023-12-20T14:42:59;94375.91;;;1.75;100.00
7990;BME280;4040;42.848;23.034;2023-12-20T14:45:27;94371.06;;;1.58;100.00
7990;BME280;4040;42.848;23.034;2023-12-20T14:47:54;94367.66;;;1.35;100.00
7990;BME280;4040;42.848;23.034;2023-12-20T14:50:22;94368.97;;;1.22;100.00
7990;BME280;4040;42.848;23.034;2023-12-20T14:52:49;94366.09;;;1.12;100.00
7990;BME280;4040;42.848;23.034;2023-12-20T14:55:19;94330.38;;;0.83;100.00
7990;BME280;4040;42.848;23.034;2023-12-20T14:57:48;94354.00;;;0.92;100.00
7990;BME280;4040;42.848;23.034;2023-12-20T15:00:16;94351.72;;;0.90;100.00
7990;BME280;4040;42.848;23.034;2023-12-20T15:02:45;94355.75;;;0.84;100.00
7990;BME280;4040;42.848;23.034;2023-12-20T15:05:12;94357.13;;;0.97;100.00
7990;BME280;4040;42.848;23.034;2023-12-20T15:07:41;94346.41;;;0.90;100.00
7990;BME280;4040;42.848;23.034;2023-12-20T15:10:09;94338.94;;;0.96;100.00
7990;BME280;4040;42.848;23.034;2023-12-20T15:12:36;94355.66;;;1.00;100.00
7990;BME280;4040;42.848;23.034;2023-12-20T15:15:06;94343.31;;;0.88;100.00
7990;BME280;4040;42.848;23.034;2023-12-20T15:17:35;94347.66;;;0.77;100.00
7990;BME280;4040;42.848;23.034;2023-12-20T15:20:03;94335.13;;;0.74;100.00
7990;BME280;4040;42.848;23.034;2023-12-20T15:22:31;94334.00;;;0.75;100.00
7990;BME280;4040;42.848;23.034;2023-12-20T15:24:59;94332.22;;;0.60;100.00
7990;BME280;4040;42.848;23.034;2023-12-20T15:27:29;94326.50;;;0.58;100.00
7990;BME280;4040;42.848;23.034;2023-12-20T15:29:56;94329.00;;;0.51;100.00
7990;BME280;4040;42.848;23.034;2023-12-20T15:32:25;94329.91;;;0.59;100.00
7990;BME280;4040;42.848;23.034;2023-12-20T15:34:52;94331.50;;;0.63;100.00
7990;BME280;4040;42.848;23.034;2023-12-20T15:37:20;94242.72;;;0.12;100.00
7990;BME280;4040;42.848;23.034;2023-12-20T15:39:48;94301.25;;;0.64;100.00
7990;BME280;4040;42.848;23.034;2023-12-20T15:42:15;94324.00;;;0.88;100.00
7990;BME280;4040;42.848;23.034;2023-12-20T15:44:43;94320.59;;;0.87;100.00
7990;BME280;4040;42.848;23.034;2023-12-20T15:47:10;94305.97;;;0.74;100.00
7990;BME280;4040;42.848;23.034;2023-12-20T15:49:40;94313.28;;;0.81;100.00
7990;BME280;4040;42.848;23.034;2023-12-20T15:52:07;94320.34;;;0.73;100.00
7990;BME280;4040;42.848;23.034;2023-12-20T15:54:35;94325.53;;;0.47;100.00
7990;BME280;4040;42.848;23.034;2023-12-20T15:57:04;94322.88;;;0.47;100.00
7990;BME280;4040;42.848;23.034;2023-12-20T15:59:32;94318.16;;;0.37;100.00
7990;BME280;4040;42.848;23.034;2023-12-20T16:01:59;94241.50;;;-0.12;100.00
7990;BME280;4040;42.848;23.034;2023-12-20T16:04:27;94318.19;;;0.41;100.00
7990;BME280;4040;42.848;23.034;2023-12-20T16:06:56;94288.44;;;0.28;100.00
7990;BME280;4040;42.848;23.034;2023-12-20T16:09:23;94311.28;;;0.36;100.00
7990;BME280;4040;42.848;23.034;2023-12-20T16:11:51;94306.56;;;0.26;100.00
7990;BME280;4040;42.848;23.034;2023-12-20T16:14:18;94281.63;;;0.27;100.00
7990;BME280;4040;42.848;23.034;2023-12-20T16:16:46;94299.44;;;0.49;100.00
7990;BME280;4040;42.848;23.034;2023-12-20T16:19:14;94259.31;;;0.28;100.00
7990;BME280;4040;42.848;23.034;2023-12-20T16:21:43;94303.25;;;0.52;100.00
7990;BME280;4040;42.848;23.034;2023-12-20T16:24:12;94292.66;;;0.52;100.00
7990;BME280;4040;42.848;23.034;2023-12-20T16:26:39;94294.84;;;0.46;100.00
7990;BME280;4040;42.848;23.034;2023-12-20T16:29:10;94271.06;;;0.31;100.00
7990;BME280;4040;42.848;23.034;2023-12-20T16:31:39;94271.72;;;0.24;100.00
7990;BME280;4040;42.848;23.034;2023-12-20T16:34:06;94292.22;;;0.27;100.00
7990;BME280;4040;42.848;23.034;2023-12-20T16:36:49;94296.97;;;0.37;100.00
7990;BME280;4040;42.848;23.034;2023-12-20T16:39:20;94297.78;;;0.41;100.00
7990;BME280;4040;42.848;23.034;2023-12-20T16:41:47;94290.25;;;0.43;100.00
7990;BME280;4040;42.848;23.034;2023-12-20T16:44:15;94288.00;;;0.45;100.00
7990;BME280;4040;42.848;23.034;2023-12-20T16:46:43;94291.50;;;0.49;100.00
7990;BME280;4040;42.848;23.034;2023-12-20T16:49:11;94279.50;;;0.36;100.00
7990;BME280;4040;42.848;23.034;2023-12-20T16:51:39;94301.25;;;0.45;100.00
7990;BME280;4040;42.848;23.034;2023-12-20T16:54:06;94298.91;;;0.40;100.00
7990;BME280;4040;42.848;23.034;2023-12-20T16:56:35;94263.22;;;0.15;100.00
7990;BME280;4040;42.848;23.034;2023-12-20T16:59:03;94308.38;;;0.41;100.00
7990;BME280;4040;42.848;23.034;2023-12-20T17:01:30;94307.66;;;0.44;100.00
7990;BME280;4040;42.848;23.034;2023-12-20T17:03:57;94311.44;;;0.43;100.00
7990;BME280;4040;42.848;23.034;2023-12-20T17:06:25;94317.00;;;0.19;100.00
7990;BME280;4040;42.848;23.034;2023-12-20T17:08:53;94317.56;;;0.09;100.00